In Rescue
 
Open Full Screen Window  High Contrast Mode
Wind Gusting 21 knots
15
May 28, 2020 3:59 PM EDT
Weather Information
Wind Direction
  240 °
Wind Speed
  15 kt (17 mph)
Wind Gust
  21 kt (24 mph)
Altimeter
29.92 in
Visibility
10 SM
Temperature
27° C
81° F
Dewpoint
17° C
63° F
Humidity
54%
1hr Rain Fall
00.00 in.
24hr Rain Fall
00.14 in.
Sky Condition
Scattered @ 6,000 ft
Scattered @ 4,900 ft
Scattered @ 4,200 ft
VFR

METAR KDLZ 281959Z AUTO 24015G21KT 10SM SCT042 SCT049 SCT060 27/17 A2992 RMK AO2

FAA Disclaimer: The data displayed is for advisory purposes only and is not to be used for flight planning or operations.